aviador You're here:

OIMQ Decoded Metar

KASHMAR in IRAN
Report Time2018-01-20 05:00:00
UTC Time2018-01-20 05:13:45
Flight Rules vfr VFR
Wind100° at 06 kt
W.Rank100° ranks 13
Current wind is below 100° avg. (6.7)
Visibility9999 m
Phenomena:N/A
Clouds:N/A
Expected CloudBase > 8,400 ft AGL from Temp-Dew spread
CeilingNone
Temp11°C
Dew Point-10°C (22% RH)
AAT5.8°C
QNH1018 hPa
Raw Report
METAR OIMQ 200500Z 10006KT CAVOK 11/M10 Q1018=

Extra information for OIMQ:More info

Metar Taf Metar & Taf Last 4 Metars F.Rules Stats Wind Profile Meteogram Temp Stats Metar ALERT Operation Metar Decoded Social comments